createdAt,value
2022-08-10T00:01:52.658Z,64.36
2022-08-10T00:04:23.147Z,64.27
2022-08-10T00:06:55.617Z,64.42
2022-08-10T00:09:23.864Z,65.34
2022-08-10T00:11:51.461Z,65.78
2022-08-10T00:14:19.158Z,65.75
2022-08-10T00:16:47.095Z,66.06
2022-08-10T00:19:16.735Z,66.68
2022-08-10T00:21:46.603Z,67.34
2022-08-10T00:24:14.858Z,67.27
2022-08-10T00:27:58.906Z,67.35
2022-08-10T00:29:31.048Z,67.07
2022-08-10T00:31:59.664Z,67.61
2022-08-10T00:34:32.796Z,67.13
2022-08-10T00:37:01.218Z,67.29
2022-08-10T00:39:29.460Z,67.76
2022-08-10T00:42:01.932Z,68.26
2022-08-10T00:44:42.985Z,69.79
2022-08-10T00:47:35.497Z,70.40
2022-08-10T00:49:59.428Z,71.16
2022-08-10T00:52:30.006Z,71.26
2022-08-10T00:54:58.238Z,71.53
2022-08-10T00:57:26.117Z,72.43
2022-08-10T00:59:59.006Z,72.49
2022-08-10T01:02:32.408Z,73.19
2022-08-10T01:05:05.232Z,73.67
2022-08-10T01:07:56.789Z,74.28
2022-08-10T01:10:43.579Z,74.50
2022-08-10T01:13:32.412Z,75.00
2022-08-10T01:16:09.337Z,75.24
2022-08-10T01:18:52.736Z,75.34
2022-08-10T01:21:57.082Z,75.12
2022-08-10T01:24:39.197Z,75.27
2022-08-10T01:27:27.681Z,75.80
2022-08-10T01:30:12.416Z,76.28
2022-08-10T01:33:01.608Z,77.27
2022-08-10T01:35:54.372Z,77.46
2022-08-10T01:38:32.240Z,76.87
2022-08-10T01:41:06.506Z,76.95
2022-08-10T01:43:40.824Z,76.87
2022-08-10T01:46:10.626Z,77.05
2022-08-10T01:48:48.821Z,76.63
2022-08-10T01:51:27.746Z,76.96
2022-08-10T01:54:01.665Z,77.20
2022-08-10T01:56:31.144Z,77.31
2022-08-10T01:59:07.737Z,77.06
2022-08-10T02:01:40.441Z,77.34
2022-08-10T02:04:11.073Z,77.55
2022-08-10T02:06:49.064Z,77.83
2022-08-10T02:09:24.035Z,77.72
2022-08-10T02:12:05.785Z,77.93
2022-08-10T02:14:51.198Z,77.87
2022-08-10T02:17:58.033Z,78.22
2022-08-10T02:20:18.511Z,78.61
2022-08-10T02:22:49.972Z,78.64
2022-08-10T02:25:40.936Z,78.45
2022-08-10T02:28:09.115Z,79.38
2022-08-10T02:30:38.234Z,78.61
2022-08-10T02:33:07.001Z,78.96
2022-08-10T02:35:53.848Z,79.50
2022-08-10T02:38:57.702Z,79.85
2022-08-10T02:45:13.000Z,80.22
2022-08-10T02:45:23.391Z,79.98
2022-08-10T02:47:51.086Z,80.34
2022-08-10T02:50:38.940Z,80.29
2022-08-10T02:53:54.477Z,80.79
2022-08-10T02:56:12.795Z,80.91
2022-08-10T02:58:45.066Z,80.42
2022-08-10T03:01:17.653Z,80.74
2022-08-10T03:03:59.302Z,80.65
2022-08-10T03:06:34.680Z,80.81
2022-08-10T03:09:06.491Z,81.66
2022-08-10T03:12:35.660Z,81.48
2022-08-10T03:14:25.425Z,82.77
2022-08-10T03:16:56.627Z,83.45
2022-08-10T03:20:35.453Z,83.63
2022-08-10T03:22:15.725Z,85.05
2022-08-10T03:24:44.574Z,85.65
2022-08-10T03:27:13.594Z,86.01
2022-08-10T03:30:23.501Z,86.49
2022-08-10T03:32:33.496Z,86.90
2022-08-10T03:35:02.024Z,87.23
2022-08-10T03:37:29.600Z,87.76
2022-08-10T03:39:57.514Z,88.07
2022-08-10T03:42:27.670Z,88.11
2022-08-10T03:44:56.637Z,88.37
2022-08-10T03:47:25.741Z,88.07
2022-08-10T03:49:56.334Z,88.90
2022-08-10T03:52:25.433Z,89.10
2022-08-10T03:54:53.300Z,88.57
2022-08-10T03:57:22.593Z,87.35
2022-08-10T03:59:50.764Z,84.64
2022-08-10T04:02:44.345Z,84.16
2022-08-10T04:05:08.045Z,83.69
2022-08-10T04:07:36.375Z,82.14
2022-08-10T04:10:04.103Z,80.38
2022-08-10T04:12:32.750Z,77.83
2022-08-10T04:15:00.420Z,78.28
2022-08-10T04:18:03.006Z,79.67
2022-08-10T04:20:25.796Z,78.01
2022-08-10T04:23:01.330Z,79.06
2022-08-10T04:25:29.720Z,79.17
2022-08-10T04:27:58.071Z,80.11
2022-08-10T04:30:28.243Z,79.67
2022-08-10T04:32:59.796Z,80.02
2022-08-10T04:35:29.896Z,81.06
2022-08-10T04:37:59.398Z,79.20
2022-08-10T04:40:30.736Z,77.52
2022-08-10T04:43:04.479Z,75.13
2022-08-10T04:45:49.856Z,71.25
2022-08-10T04:48:43.481Z,72.98
2022-08-10T04:51:17.705Z,71.74
2022-08-10T04:54:04.664Z,67.45
2022-08-10T04:56:39.742Z,65.09
2022-08-10T04:59:09.625Z,61.08
2022-08-10T05:02:22.483Z,63.92
2022-08-10T05:04:38.497Z,61.36
2022-08-10T05:07:17.019Z,59.22
2022-08-10T05:10:01.597Z,60.67
2022-08-10T05:12:38.734Z,63.44
2022-08-10T05:15:14.184Z,65.16
2022-08-10T05:18:03.333Z,61.86
2022-08-10T05:20:30.846Z,56.11
2022-08-10T05:22:58.390Z,55.80
2022-08-10T05:25:25.943Z,52.30
2022-08-10T05:27:57.284Z,50.45
2022-08-10T05:30:25.350Z,49.29
2022-08-10T05:32:57.797Z,47.96
2022-08-10T05:35:28.854Z,46.50
2022-08-10T05:38:18.133Z,45.81
2022-08-10T05:40:47.826Z,46.85
2022-08-10T05:43:20.442Z,47.04
2022-08-10T05:46:19.687Z,49.24
2022-08-10T05:48:56.405Z,50.11
2022-08-10T05:51:28.239Z,50.12
2022-08-10T05:54:02.618Z,48.71
2022-08-10T05:56:53.850Z,48.06
2022-08-10T06:00:10.793Z,48.04
2022-08-10T06:02:34.099Z,47.95
2022-08-10T06:05:19.372Z,47.78
2022-08-10T06:08:08.701Z,47.14
2022-08-10T06:12:21.663Z,47.78
2022-08-10T06:13:59.470Z,46.94
2022-08-10T06:16:34.906Z,46.00
2022-08-10T06:19:04.297Z,46.24
2022-08-10T06:21:33.043Z,46.15
2022-08-10T06:24:02.443Z,47.17
2022-08-10T06:26:30.112Z,48.23
2022-08-10T06:29:04.229Z,48.38
2022-08-10T06:31:47.854Z,47.55
2022-08-10T06:34:27.588Z,47.06
2022-08-10T06:36:59.455Z,47.09
2022-08-10T06:39:36.316Z,44.87
2022-08-10T06:42:17.923Z,44.46
2022-08-10T06:45:00.766Z,44.78
2022-08-10T06:47:46.830Z,43.11
2022-08-10T06:50:56.099Z,41.74
2022-08-10T06:53:16.122Z,43.43
2022-08-10T06:55:57.078Z,42.60
2022-08-10T06:58:29.330Z,43.79
2022-08-10T07:00:58.231Z,44.03
2022-08-10T07:03:34.114Z,44.33
2022-08-10T07:06:06.531Z,44.70
2022-08-10T07:08:37.003Z,45.42
2022-08-10T07:11:08.811Z,45.40
2022-08-10T07:14:15.252Z,45.36
2022-08-10T07:16:30.062Z,45.76
2022-08-10T07:19:00.581Z,44.52
2022-08-10T07:21:30.391Z,43.62
2022-08-10T07:24:00.828Z,43.93
2022-08-10T07:26:31.732Z,43.58
2022-08-10T07:29:00.433Z,43.59
2022-08-10T07:31:49.312Z,42.70
2022-08-10T07:34:28.706Z,43.13
2022-08-10T07:37:06.242Z,43.63
2022-08-10T07:40:03.188Z,43.46
2022-08-10T07:42:31.185Z,43.73
2022-08-10T07:44:59.681Z,44.52
2022-08-10T07:47:52.718Z,44.46
2022-08-10T07:50:25.190Z,44.25
2022-08-10T07:52:57.161Z,43.34
2022-08-10T07:56:08.296Z,43.33
2022-08-10T07:58:16.452Z,42.96
2022-08-10T08:00:46.661Z,43.98
2022-08-10T08:03:16.431Z,44.83
2022-08-10T08:05:58.935Z,44.32
2022-08-10T08:08:32.267Z,44.13
2022-08-10T08:11:00.702Z,43.28
2022-08-10T08:13:29.688Z,42.55
2022-08-10T08:16:18.179Z,42.49
2022-08-10T08:19:03.996Z,42.19
2022-08-10T08:24:07.376Z,41.83
2022-08-10T08:24:31.076Z,42.05
2022-08-10T08:27:03.158Z,41.84
2022-08-10T08:29:41.471Z,41.87
2022-08-10T08:32:11.691Z,42.22
2022-08-10T08:34:42.719Z,41.30
2022-08-10T08:37:12.418Z,40.93
2022-08-10T08:39:47.216Z,40.37
2022-08-10T08:42:44.782Z,41.30
2022-08-10T08:46:00.702Z,41.58
2022-08-10T08:48:55.422Z,40.82
2022-08-10T08:52:09.498Z,39.78
2022-08-10T08:54:58.231Z,40.70
2022-08-10T08:57:49.599Z,40.13
2022-08-10T09:00:36.562Z,39.25
2022-08-10T09:03:27.581Z,39.42
2022-08-10T09:06:04.652Z,37.88
2022-08-10T09:08:50.104Z,37.09
2022-08-10T09:11:30.883Z,38.06
2022-08-10T09:14:08.941Z,38.90
2022-08-10T09:16:51.989Z,38.93
2022-08-10T09:19:36.316Z,36.89
2022-08-10T09:22:17.905Z,36.31
2022-08-10T09:24:54.649Z,36.72
2022-08-10T09:27:39.792Z,36.60
2022-08-10T09:30:16.459Z,36.79
2022-08-10T09:36:16.127Z,37.04
2022-08-10T09:36:23.507Z,36.09
2022-08-10T09:40:05.890Z,36.93
2022-08-10T09:42:06.282Z,36.75
2022-08-10T09:45:00.198Z,37.22
2022-08-10T09:48:01.930Z,39.51
2022-08-10T09:51:41.786Z,40.67
2022-08-10T09:54:20.978Z,41.75
2022-08-10T09:57:43.149Z,41.93
2022-08-10T10:00:15.661Z,41.87
2022-08-10T10:03:03.805Z,41.23
2022-08-10T10:05:51.105Z,41.37
2022-08-10T10:08:20.529Z,41.11
2022-08-10T10:11:17.031Z,40.90
2022-08-10T10:14:26.397Z,41.21
2022-08-10T10:17:17.502Z,42.03
2022-08-10T10:20:09.661Z,41.27
2022-08-10T10:22:46.302Z,41.16
2022-08-10T10:25:23.471Z,41.25
2022-08-10T10:28:13.442Z,41.85
2022-08-10T10:31:16.739Z,42.39
2022-08-10T10:33:54.585Z,42.37
2022-08-10T10:36:23.956Z,42.26
2022-08-10T10:38:54.813Z,41.59
2022-08-10T10:41:55.987Z,41.86
2022-08-10T10:44:43.947Z,40.69
2022-08-10T10:47:27.153Z,39.24
2022-08-10T10:50:13.995Z,37.66
2022-08-10T10:53:19.369Z,36.55
2022-08-10T10:56:16.667Z,37.63
2022-08-10T10:59:33.284Z,38.93
2022-08-10T11:02:03.723Z,39.90
2022-08-10T11:05:09.756Z,40.81
2022-08-10T11:07:57.035Z,40.12
2022-08-10T11:10:47.163Z,39.25
2022-08-10T11:14:25.089Z,40.12
2022-08-10T11:16:43.521Z,40.83
2022-08-10T11:19:16.049Z,41.10
2022-08-10T11:22:01.727Z,40.74
2022-08-10T11:24:54.158Z,40.60
2022-08-10T11:27:44.565Z,40.18
2022-08-10T11:30:19.077Z,40.09
2022-08-10T11:33:32.403Z,39.87
2022-08-10T11:36:39.056Z,39.33
2022-08-10T11:39:31.810Z,39.50
2022-08-10T11:42:15.223Z,39.59
2022-08-10T11:45:09.128Z,39.26
2022-08-10T11:47:45.317Z,39.60
2022-08-10T11:50:35.228Z,39.00
2022-08-10T11:53:35.250Z,39.35
2022-08-10T11:56:11.106Z,38.56
2022-08-10T11:59:01.931Z,38.82
2022-08-10T12:01:47.242Z,38.47
2022-08-10T12:04:16.786Z,38.47
2022-08-10T12:06:55.993Z,38.54
2022-08-10T12:10:10.185Z,38.38
2022-08-10T12:12:14.068Z,39.61
2022-08-10T12:14:50.747Z,39.39
2022-08-10T12:17:56.635Z,39.60
2022-08-10T12:20:35.357Z,39.65
2022-08-10T12:23:27.736Z,38.78
2022-08-10T12:26:13.816Z,38.49
2022-08-10T12:28:52.148Z,39.37
2022-08-10T12:31:35.317Z,40.04
2022-08-10T12:34:19.175Z,39.71
2022-08-10T12:37:00.947Z,39.23
2022-08-10T12:39:34.757Z,38.94
2022-08-10T12:42:10.498Z,38.69
2022-08-10T12:45:03.576Z,37.56
2022-08-10T12:47:46.972Z,37.11
2022-08-10T12:50:30.988Z,37.87
2022-08-10T12:53:29.531Z,37.60
2022-08-10T12:55:58.765Z,37.51
2022-08-10T12:58:59.659Z,37.09
2022-08-10T13:01:18.891Z,36.52
2022-08-10T13:04:20.583Z,36.89
2022-08-10T13:06:41.898Z,36.90
2022-08-10T13:09:09.786Z,35.98
2022-08-10T13:12:39.504Z,35.88
2022-08-10T13:15:31.050Z,35.72
2022-08-10T13:17:58.175Z,36.57
2022-08-10T13:20:37.166Z,36.59
2022-08-10T13:23:35.736Z,36.58
2022-08-10T13:26:04.405Z,36.31
2022-08-10T13:28:45.572Z,36.36
2022-08-10T13:31:19.343Z,36.84
2022-08-10T13:34:03.810Z,37.45
2022-08-10T13:36:43.946Z,37.27
2022-08-10T13:39:12.819Z,37.42
2022-08-10T13:41:44.496Z,36.79
2022-08-10T13:44:17.864Z,36.35
2022-08-10T13:46:51.454Z,36.62
2022-08-10T13:49:21.298Z,36.58
2022-08-10T13:51:57.034Z,36.99
2022-08-10T13:54:36.958Z,36.82
2022-08-10T13:57:06.166Z,35.87
2022-08-10T14:00:37.497Z,35.28
2022-08-10T14:02:28.751Z,34.65
2022-08-10T14:04:58.078Z,34.76
2022-08-10T14:07:28.577Z,34.68
2022-08-10T14:10:07.762Z,35.00
2022-08-10T14:12:39.296Z,35.08
2022-08-10T14:15:09.912Z,35.06
2022-08-10T14:17:44.771Z,34.47
2022-08-10T14:20:19.325Z,33.95
2022-08-10T14:22:49.505Z,34.08
2022-08-10T14:25:17.073Z,34.17
2022-08-10T14:28:03.295Z,33.13
2022-08-10T14:30:33.162Z,33.24
2022-08-10T14:33:04.816Z,33.14
2022-08-10T14:36:19.105Z,32.95
2022-08-10T14:38:33.628Z,32.97
2022-08-10T14:41:04.224Z,32.62
2022-08-10T14:43:42.546Z,31.96
2022-08-10T14:46:17.795Z,31.70
2022-08-10T14:48:49.633Z,32.79
2022-08-10T14:51:26.197Z,35.07
2022-08-10T14:53:58.786Z,36.05
2022-08-10T14:56:34.307Z,36.73
2022-08-10T14:59:07.698Z,37.34
2022-08-10T15:02:00.563Z,37.32
2022-08-10T15:04:30.605Z,37.47
2022-08-10T15:07:12.822Z,37.27
2022-08-10T15:10:01.453Z,36.95
2022-08-10T15:12:38.308Z,37.19
2022-08-10T15:15:27.734Z,37.31
2022-08-10T15:17:58.958Z,37.30
2022-08-10T15:20:29.755Z,37.61
2022-08-10T15:23:30.531Z,38.01
2022-08-10T15:26:08.468Z,37.39
2022-08-10T15:29:22.731Z,37.88
2022-08-10T15:31:56.654Z,37.64
2022-08-10T15:34:44.558Z,38.04
2022-08-10T15:37:40.108Z,37.91
2022-08-10T15:40:25.400Z,38.44
2022-08-10T15:43:05.799Z,38.54
2022-08-10T15:46:14.556Z,38.54
2022-08-10T15:49:01.454Z,38.88
2022-08-10T15:51:52.873Z,39.35
2022-08-10T15:54:33.482Z,39.09
2022-08-10T15:57:21.164Z,39.29
2022-08-10T16:00:12.520Z,39.48
2022-08-10T16:02:53.881Z,39.62
2022-08-10T16:05:58.449Z,39.55
2022-08-10T16:08:24.400Z,39.51
2022-08-10T16:11:05.676Z,39.33
2022-08-10T16:13:50.644Z,39.33
2022-08-10T16:16:32.803Z,38.69
2022-08-10T16:19:22.322Z,38.42
2022-08-10T16:21:57.724Z,36.60
2022-08-10T16:24:29.822Z,36.61
2022-08-10T16:26:58.855Z,36.23
2022-08-10T16:29:27.645Z,35.98
2022-08-10T16:31:59.815Z,35.59
2022-08-10T16:34:30.646Z,35.03
2022-08-10T16:37:03.205Z,35.68
2022-08-10T16:39:57.835Z,35.75
2022-08-10T16:42:25.943Z,35.86
2022-08-10T16:45:06.319Z,36.24
2022-08-10T16:47:39.205Z,36.06
2022-08-10T16:50:10.764Z,35.65
2022-08-10T16:52:40.582Z,35.90
2022-08-10T16:55:47.447Z,35.89
2022-08-10T16:58:18.284Z,38.07
2022-08-10T17:00:47.355Z,38.49
2022-08-10T17:04:04.921Z,38.66
2022-08-10T17:06:10.735Z,38.68
2022-08-10T17:08:48.575Z,39.41
2022-08-10T17:11:18.874Z,39.55
2022-08-10T17:13:47.719Z,38.98
2022-08-10T17:16:17.724Z,39.24
2022-08-10T17:18:48.137Z,39.45
2022-08-10T17:21:22.701Z,38.93
2022-08-10T17:23:54.243Z,38.59
2022-08-10T17:26:37.126Z,38.81
2022-08-10T17:29:53.076Z,39.02
2022-08-10T17:32:08.351Z,39.37
2022-08-10T17:34:44.715Z,39.68
2022-08-10T17:37:24.629Z,39.83
2022-08-10T17:39:58.250Z,39.67
2022-08-10T17:42:27.379Z,40.20
2022-08-10T17:44:56.321Z,39.94
2022-08-10T17:47:27.489Z,40.00
2022-08-10T17:49:58.049Z,40.52
2022-08-10T17:52:30.663Z,40.96
2022-08-10T17:55:03.174Z,41.21
2022-08-10T17:57:36.809Z,41.55
2022-08-10T18:00:10.747Z,41.96
2022-08-10T18:02:40.864Z,41.77
2022-08-10T18:05:10.366Z,41.94
2022-08-10T18:07:43.784Z,41.85
2022-08-10T18:10:17.689Z,41.95
2022-08-10T18:12:53.331Z,41.81
2022-08-10T18:15:27.349Z,41.75
2022-08-10T18:18:02.801Z,41.92
2022-08-10T18:20:37.462Z,42.19
2022-08-10T18:23:08.057Z,42.06
2022-08-10T18:25:40.424Z,42.27
2022-08-10T18:28:11.538Z,42.64
2022-08-10T18:30:48.245Z,42.71
2022-08-10T18:33:19.109Z,42.94
2022-08-10T18:35:48.213Z,43.02
2022-08-10T18:38:17.516Z,43.22
2022-08-10T18:40:53.043Z,43.28
2022-08-10T18:44:07.126Z,43.20
2022-08-10T18:46:23.459Z,43.50
2022-08-10T18:49:09.474Z,43.43
2022-08-10T18:51:47.499Z,43.53
2022-08-10T18:54:39.636Z,43.61
2022-08-10T18:57:27.382Z,44.12
2022-08-10T19:00:13.551Z,44.25
2022-08-10T19:03:02.344Z,44.42
2022-08-10T19:06:00.722Z,44.61
2022-08-10T19:08:37.065Z,45.35
2022-08-10T19:11:25.162Z,45.79
2022-08-10T19:14:25.373Z,45.69
2022-08-10T19:17:20.189Z,46.24
2022-08-10T19:20:24.933Z,46.87
2022-08-10T19:23:06.110Z,47.05
2022-08-10T19:26:42.417Z,47.27
2022-08-10T19:29:17.358Z,48.07
2022-08-10T19:32:25.035Z,48.18
2022-08-10T19:35:11.263Z,48.79
2022-08-10T19:38:14.727Z,49.00
2022-08-10T19:41:30.993Z,49.18
2022-08-10T19:44:12.379Z,49.15
2022-08-10T19:46:42.703Z,49.79
2022-08-10T19:49:16.076Z,49.56
2022-08-10T19:52:23.394Z,49.70
2022-08-10T19:55:14.556Z,49.85
2022-08-10T19:58:02.552Z,50.06
2022-08-10T20:00:41.080Z,50.40
2022-08-10T20:03:23.923Z,50.58
2022-08-10T20:06:18.945Z,50.51
2022-08-10T20:08:59.284Z,51.27
2022-08-10T20:11:44.538Z,50.87
2022-08-10T20:14:23.161Z,51.34
2022-08-10T20:16:55.906Z,51.43
2022-08-10T20:19:52.754Z,51.61
2022-08-10T20:22:29.788Z,52.05
2022-08-10T20:25:28.148Z,52.44
2022-08-10T20:28:15.250Z,52.62
2022-08-10T20:30:48.252Z,52.62
2022-08-10T20:33:25.644Z,52.65
2022-08-10T20:36:00.452Z,53.07
2022-08-10T20:38:53.603Z,53.03
2022-08-10T20:41:28.704Z,53.15
2022-08-10T20:44:20.079Z,53.21
2022-08-10T20:47:01.813Z,53.40
2022-08-10T20:49:56.803Z,53.51
2022-08-10T20:52:27.469Z,53.66
2022-08-10T20:55:02.273Z,54.26
2022-08-10T20:57:57.443Z,54.75
2022-08-10T21:00:55.589Z,55.00
2022-08-10T21:04:00.925Z,55.24
2022-08-10T21:07:22.149Z,55.74
2022-08-10T21:10:25.332Z,55.66
2022-08-10T21:13:14.777Z,55.38
2022-08-10T21:15:58.200Z,55.54
2022-08-10T21:19:06.269Z,56.10
2022-08-10T21:22:01.455Z,56.07
2022-08-10T21:24:38.999Z,56.14
2022-08-10T21:27:35.862Z,55.95
2022-08-10T21:30:20.302Z,56.04
2022-08-10T21:33:02.722Z,56.33
2022-08-10T21:35:38.381Z,56.33
2022-08-10T21:38:26.465Z,56.20
2022-08-10T21:41:17.471Z,56.29
2022-08-10T21:44:24.083Z,57.13
2022-08-10T21:47:39.435Z,57.21
2022-08-10T21:50:28.001Z,57.50
2022-08-10T21:53:47.722Z,58.32
2022-08-10T21:57:00.603Z,58.65
2022-08-10T21:59:56.455Z,58.85
2022-08-10T22:02:50.136Z,59.31
2022-08-10T22:05:47.255Z,58.95
2022-08-10T22:08:38.793Z,58.92
2022-08-10T22:11:29.443Z,59.20
2022-08-10T22:14:27.101Z,60.28
2022-08-10T22:18:04.001Z,60.45
2022-08-10T22:20:42.921Z,60.98
2022-08-10T22:23:40.996Z,60.63
2022-08-10T22:27:00.677Z,60.37
2022-08-10T22:29:54.938Z,60.70
2022-08-10T22:32:50.952Z,60.62
2022-08-10T22:36:02.543Z,60.44
2022-08-10T22:38:51.850Z,61.29
2022-08-10T22:42:02.672Z,60.91
2022-08-10T22:44:55.171Z,61.41
2022-08-10T22:47:43.333Z,61.51
2022-08-10T22:50:13.171Z,62.50
2022-08-10T22:53:02.912Z,62.45
2022-08-10T22:55:59.673Z,62.73
2022-08-10T22:58:47.511Z,63.00
2022-08-10T23:01:40.860Z,63.65
2022-08-10T23:04:16.972Z,64.58
2022-08-10T23:06:56.391Z,64.45
2022-08-10T23:09:27.611Z,64.49
2022-08-10T23:11:59.986Z,65.04
2022-08-10T23:14:35.931Z,65.35
2022-08-10T23:18:00.556Z,65.44
2022-08-10T23:20:19.039Z,65.63
2022-08-10T23:22:50.458Z,65.45
2022-08-10T23:25:28.252Z,65.60
2022-08-10T23:28:00.778Z,65.52
2022-08-10T23:30:36.985Z,67.38
2022-08-10T23:33:06.578Z,67.56
2022-08-10T23:36:30.664Z,67.40
2022-08-10T23:38:40.182Z,67.44
2022-08-10T23:41:10.111Z,67.28
2022-08-10T23:44:03.305Z,67.43
2022-08-10T23:46:37.680Z,67.65
2022-08-10T23:49:07.894Z,67.86
2022-08-10T23:51:55.444Z,66.97
2022-08-10T23:54:26.046Z,68.09
2022-08-10T23:57:01.383Z,68.29
2022-08-10T23:59:32.034Z,68.78
